createdAt,value
2019-01-02T00:02:20.590Z,15.60
2019-01-02T00:04:58.061Z,10.80
2019-01-02T00:07:35.575Z,7.33
2019-01-02T00:10:13.049Z,10.00
2019-01-02T00:12:50.569Z,12.00
2019-01-02T00:15:28.037Z,10.27
2019-01-02T00:18:05.538Z,8.67
2019-01-02T00:20:43.029Z,9.47
2019-01-02T00:23:20.541Z,8.30
2019-01-02T00:25:58.022Z,10.17
2019-01-02T00:28:35.524Z,7.97
2019-01-02T00:31:13.006Z,8.90
2019-01-02T00:33:50.563Z,10.60
2019-01-02T00:36:28.053Z,13.43
2019-01-02T00:39:05.750Z,10.03
2019-01-02T00:41:43.247Z,19.87
2019-01-02T00:44:20.732Z,13.40
2019-01-02T00:46:58.228Z,9.70
2019-01-02T00:49:35.706Z,10.47
2019-01-02T00:52:13.197Z,7.97
2019-01-02T00:54:50.683Z,15.60
2019-01-02T00:57:28.222Z,13.63
2019-01-02T01:00:06.576Z,8.37
2019-01-02T01:02:44.069Z,13.50
2019-01-02T01:05:21.575Z,7.83
2019-01-02T01:07:59.064Z,11.53
2019-01-02T01:10:36.552Z,5.53
2019-01-02T01:13:14.067Z,14.40
2019-01-02T01:15:51.525Z,11.07
2019-01-02T01:18:29.058Z,9.83
2019-01-02T01:21:06.521Z,11.27
2019-01-02T01:23:44.052Z,11.07
2019-01-02T01:26:21.516Z,11.87
2019-01-02T01:28:59.038Z,9.60
2019-01-02T01:31:36.512Z,14.90
2019-01-02T01:34:14.067Z,11.10
2019-01-02T01:36:51.566Z,11.67
2019-01-02T01:39:29.062Z,12.43
2019-01-02T01:42:06.597Z,7.60
2019-01-02T01:44:44.081Z,9.77
2019-01-02T01:47:21.600Z,14.10
2019-01-02T01:49:59.085Z,11.90
2019-01-02T01:52:36.593Z,10.53
2019-01-02T01:55:14.092Z,11.77
2019-01-02T01:57:51.593Z,11.57
2019-01-02T02:00:29.090Z,11.43
2019-01-02T02:03:06.577Z,13.30
2019-01-02T02:05:44.058Z,11.80
2019-01-02T02:08:21.543Z,9.53
2019-01-02T02:10:59.018Z,15.27
2019-01-02T02:13:36.512Z,10.00
2019-01-02T02:16:13.990Z,13.40
2019-01-02T02:18:51.495Z,13.47
2019-01-02T02:21:28.980Z,11.87
2019-01-02T02:24:06.483Z,14.57
2019-01-02T02:26:43.964Z,9.80
2019-01-02T02:29:21.469Z,9.83
2019-01-02T02:31:58.949Z,12.33
2019-01-02T02:34:36.474Z,11.53
2019-01-02T02:37:13.987Z,12.17
2019-01-02T02:39:51.447Z,8.53
2019-01-02T02:42:28.943Z,10.77
2019-01-02T02:45:06.649Z,11.63
2019-01-02T02:47:44.140Z,8.47
2019-01-02T02:50:21.599Z,8.83
2019-01-02T02:52:59.100Z,10.00
2019-01-02T02:55:36.583Z,14.57
2019-01-02T02:58:14.082Z,9.60
2019-01-02T03:00:51.560Z,13.20
2019-01-02T03:03:29.055Z,6.23
2019-01-02T03:06:06.532Z,10.60
2019-01-02T03:08:44.050Z,10.23
2019-01-02T03:11:21.522Z,9.40
2019-01-02T03:13:59.041Z,13.17
2019-01-02T03:16:36.542Z,11.80
2019-01-02T03:19:14.037Z,11.73
2019-01-02T03:21:51.532Z,7.60
2019-01-02T03:24:29.035Z,8.80
2019-01-02T03:27:06.506Z,13.77
2019-01-02T03:29:44.016Z,15.40
2019-01-02T03:32:21.495Z,13.67
2019-01-02T03:34:59.020Z,13.50
2019-01-02T03:37:36.490Z,12.60
2019-01-02T03:40:14.111Z,12.77
2019-01-02T03:42:51.618Z,16.27
2019-01-02T03:45:29.089Z,12.33
2019-01-02T03:48:06.575Z,15.20
2019-01-02T03:50:44.052Z,13.47
2019-01-02T03:53:21.552Z,9.07
2019-01-02T03:55:59.037Z,17.73
2019-01-02T03:58:36.535Z,14.87
2019-01-02T04:01:14.058Z,10.17
2019-01-02T04:03:51.559Z,14.77
2019-01-02T04:06:29.021Z,15.77
2019-01-02T04:09:07.604Z,17.10
2019-01-02T04:11:45.080Z,12.53
2019-01-02T04:14:22.571Z,10.73
2019-01-02T04:17:00.044Z,11.10
2019-01-02T04:19:37.545Z,11.10
2019-01-02T04:22:15.029Z,12.77
2019-01-02T04:24:52.536Z,13.27
2019-01-02T04:27:30.005Z,12.60
2019-01-02T04:30:08.785Z,13.73
2019-01-02T04:32:46.283Z,7.17
2019-01-02T04:35:23.837Z,10.37
2019-01-02T04:38:01.338Z,14.63
2019-01-02T04:40:38.838Z,13.47
2019-01-02T04:43:16.338Z,13.80
2019-01-02T04:45:53.827Z,15.47
2019-01-02T04:48:31.325Z,10.73
2019-01-02T04:51:08.792Z,10.80
2019-01-02T04:53:46.300Z,10.97
2019-01-02T04:56:23.763Z,11.57
2019-01-02T04:59:01.266Z,8.80
2019-01-02T05:01:38.741Z,17.07
2019-01-02T05:04:16.250Z,9.07
2019-01-02T05:06:53.744Z,11.90
2019-01-02T05:09:31.252Z,12.03
2019-01-02T05:12:08.737Z,12.77
2019-01-02T05:14:46.249Z,12.90
2019-01-02T05:17:23.723Z,12.93
2019-01-02T05:20:01.218Z,13.57
2019-01-02T05:22:38.711Z,12.93
2019-01-02T05:25:16.215Z,13.83
2019-01-02T05:27:53.697Z,9.53
2019-01-02T05:30:31.215Z,5.80
2019-01-02T05:33:08.713Z,13.77
2019-01-02T05:35:46.207Z,7.63
2019-01-02T05:38:23.701Z,9.90
2019-01-02T05:41:01.195Z,12.67
2019-01-02T05:43:38.680Z,6.73
2019-01-02T05:46:16.148Z,8.53
2019-01-02T05:48:54.132Z,7.97
2019-01-02T05:51:31.604Z,11.73
2019-01-02T05:54:09.097Z,7.13
2019-01-02T05:56:46.569Z,9.73
2019-01-02T05:59:24.070Z,7.80
2019-01-02T06:02:01.548Z,7.93
2019-01-02T06:04:39.053Z,6.37
2019-01-02T06:07:16.559Z,11.97
2019-01-02T06:09:54.054Z,5.30
2019-01-02T06:12:31.556Z,10.53
2019-01-02T06:15:10.655Z,8.83
2019-01-02T06:17:48.129Z,5.83
2019-01-02T06:20:25.662Z,10.57
2019-01-02T06:23:14.684Z,6.77
2019-01-02T06:25:52.199Z,9.57
2019-01-02T06:28:30.025Z,7.30
2019-01-02T06:31:07.530Z,5.23
2019-01-02T06:33:46.138Z,7.03
2019-01-02T06:36:28.995Z,5.83
2019-01-02T06:39:10.524Z,7.43
2019-01-02T06:41:48.027Z,6.03
2019-01-02T06:44:25.612Z,8.53
2019-01-02T06:47:03.097Z,6.77
2019-01-02T06:49:40.647Z,6.10
2019-01-02T06:52:27.713Z,6.83
2019-01-02T06:55:05.222Z,4.33
2019-01-02T06:57:42.875Z,8.73
2019-01-02T07:00:32.065Z,7.33
2019-01-02T07:03:09.559Z,8.87
2019-01-02T07:05:47.068Z,8.90
2019-01-02T07:08:24.716Z,7.63
2019-01-02T07:11:02.289Z,6.80
2019-01-02T07:13:41.678Z,5.30
2019-01-02T07:16:23.811Z,7.97
2019-01-02T07:19:01.333Z,6.87
2019-01-02T07:21:38.952Z,11.00
2019-01-02T07:24:18.271Z,9.07
2019-01-02T07:26:57.093Z,12.70
2019-01-02T07:29:34.798Z,7.80
2019-01-02T07:32:12.280Z,9.13
2019-01-02T07:35:39.535Z,4.90
2019-01-02T07:39:05.984Z,9.37
2019-01-02T07:42:45.198Z,9.33
2019-01-02T07:46:12.609Z,8.03
2019-01-02T07:50:15.758Z,9.83
2019-01-02T07:53:42.111Z,10.57
2019-01-02T07:56:46.273Z,10.60
2019-01-02T08:00:19.252Z,9.50
2019-01-02T08:04:01.703Z,7.20
2019-01-02T08:07:42.184Z,6.33
2019-01-02T08:11:17.753Z,9.93
2019-01-02T08:14:44.997Z,7.87
2019-01-02T08:18:34.897Z,5.30
2019-01-02T08:22:03.779Z,6.13
2019-01-02T08:25:33.332Z,7.97
2019-01-02T08:29:12.871Z,10.07
2019-01-02T08:32:49.035Z,7.47
2019-01-02T08:36:18.784Z,8.37
2019-01-02T08:40:11.831Z,4.17
2019-01-02T08:43:47.300Z,5.03
2019-01-02T08:47:36.616Z,8.17
2019-01-02T08:51:19.510Z,10.87
2019-01-02T08:54:44.675Z,5.80
2019-01-02T08:58:41.565Z,7.93
2019-01-02T09:02:25.403Z,6.80
2019-01-02T09:05:32.153Z,7.97
2019-01-02T09:09:19.155Z,6.20
2019-01-02T09:13:13.474Z,5.63
2019-01-02T09:16:51.067Z,6.50
2019-01-02T09:20:30.351Z,4.57
2019-01-02T09:23:56.520Z,3.87
2019-01-02T09:27:37.708Z,6.53
2019-01-02T09:31:11.799Z,4.13
2019-01-02T09:34:46.498Z,8.20
2019-01-02T09:38:25.804Z,6.57
2019-01-02T09:41:55.650Z,4.53
2019-01-02T09:45:29.986Z,6.37
2019-01-02T09:49:19.961Z,3.70
2019-01-02T09:52:58.518Z,3.77
2019-01-02T09:56:54.105Z,2.43
2019-01-02T10:00:36.670Z,4.17
2019-01-02T10:04:11.869Z,3.57
2019-01-02T10:07:54.858Z,0.97
2019-01-02T10:11:18.555Z,3.30
2019-01-02T10:14:54.284Z,3.23
2019-01-02T10:18:35.223Z,3.67
2019-01-02T10:22:38.942Z,3.33
2019-01-02T10:26:30.332Z,3.83
2019-01-02T10:30:01.108Z,6.03
2019-01-02T10:33:25.833Z,2.27
2019-01-02T10:37:28.480Z,1.20
2019-01-02T10:41:35.638Z,1.73
2019-01-02T10:45:12.390Z,1.70
2019-01-02T10:48:31.808Z,4.10
2019-01-02T10:52:11.659Z,2.80
2019-01-02T10:55:46.240Z,4.53
2019-01-02T10:58:57.311Z,3.50
2019-01-02T11:02:14.991Z,3.13
2019-01-02T11:05:59.450Z,3.80
2019-01-02T11:09:28.028Z,1.40
2019-01-02T11:12:46.065Z,3.87
2019-01-02T11:15:54.751Z,3.07
2019-01-02T11:19:42.741Z,3.40
2019-01-02T11:22:48.818Z,3.90
2019-01-02T11:26:29.011Z,1.73
2019-01-02T11:30:02.342Z,1.67
2019-01-02T11:33:48.204Z,2.23
2019-01-02T11:37:18.287Z,1.83
2019-01-02T11:41:10.569Z,3.17
2019-01-02T11:44:57.656Z,2.00
2019-01-02T11:47:44.359Z,1.60
2019-01-02T11:50:21.859Z,2.97
2019-01-02T11:52:59.397Z,2.20
2019-01-02T11:55:43.194Z,2.43
2019-01-02T11:58:20.754Z,4.30
2019-01-02T12:00:58.249Z,1.83
2019-01-02T12:03:36.028Z,1.60
2019-01-02T12:06:30.237Z,2.87
2019-01-02T12:09:10.389Z,2.40
2019-01-02T12:11:47.909Z,1.53
2019-01-02T12:14:25.392Z,1.97
2019-01-02T12:17:13.166Z,1.97
2019-01-02T12:19:50.640Z,2.57
2019-01-02T12:22:28.134Z,1.93
2019-01-02T12:25:05.621Z,2.03
2019-01-02T12:27:43.126Z,3.13
2019-01-02T12:30:20.607Z,3.63
2019-01-02T12:32:58.127Z,1.43
2019-01-02T12:35:42.909Z,5.83
2019-01-02T12:38:20.432Z,1.57
2019-01-02T12:40:57.943Z,5.47
2019-01-02T12:43:35.544Z,0.70
2019-01-02T12:46:23.530Z,1.07
2019-01-02T12:49:01.062Z,2.37
2019-01-02T12:51:38.549Z,2.53
2019-01-02T12:54:16.326Z,1.23
2019-01-02T12:57:00.595Z,2.33
2019-01-02T12:59:38.086Z,1.87
2019-01-02T13:03:03.277Z,1.03
2019-01-02T13:06:41.120Z,2.13
2019-01-02T13:10:00.090Z,1.30
2019-01-02T13:13:41.347Z,1.73
2019-01-02T13:17:00.373Z,0.97
2019-01-02T13:20:19.462Z,1.67
2019-01-02T13:23:30.947Z,1.73
2019-01-02T13:26:47.222Z,3.67
2019-01-02T13:30:40.108Z,2.63
2019-01-02T13:34:35.334Z,1.50
2019-01-02T13:37:56.836Z,1.17
2019-01-02T13:41:21.313Z,1.20
2019-01-02T13:44:19.411Z,1.00
2019-01-02T13:48:18.721Z,1.70
2019-01-02T13:51:43.593Z,1.93
2019-01-02T13:54:21.104Z,0.90
2019-01-02T13:57:01.887Z,3.23
2019-01-02T13:59:39.407Z,1.83
2019-01-02T14:02:16.891Z,1.13
2019-01-02T14:04:54.387Z,1.00
2019-01-02T14:07:31.911Z,0.70
2019-01-02T14:10:09.710Z,1.10
2019-01-02T14:12:47.258Z,1.33
2019-01-02T14:15:25.597Z,1.10
2019-01-02T14:18:03.116Z,1.10
2019-01-02T14:20:40.617Z,0.70
2019-01-02T14:23:18.150Z,0.97
2019-01-02T14:25:55.759Z,1.07
2019-01-02T14:28:33.283Z,1.00
2019-01-02T14:31:10.795Z,1.07
2019-01-02T14:33:48.376Z,1.80
2019-01-02T14:36:32.808Z,0.70
2019-01-02T14:39:11.442Z,1.17
2019-01-02T14:41:48.964Z,1.03
2019-01-02T14:44:26.474Z,1.23
2019-01-02T14:47:04.088Z,1.80
2019-01-02T14:49:41.666Z,2.37
2019-01-02T14:52:19.164Z,1.43
2019-01-02T14:55:00.351Z,3.00
2019-01-02T14:57:37.951Z,2.87
2019-01-02T15:00:16.938Z,1.00
2019-01-02T15:02:54.443Z,2.40
2019-01-02T15:05:32.057Z,1.37
2019-01-02T15:08:09.579Z,2.30
2019-01-02T15:10:47.069Z,3.60
2019-01-02T15:13:24.600Z,3.20
2019-01-02T15:16:07.420Z,2.00
2019-01-02T15:18:44.916Z,5.03
2019-01-02T15:21:22.413Z,1.43
2019-01-02T15:23:59.930Z,2.10
2019-01-02T15:26:43.871Z,1.93
2019-01-02T15:29:21.417Z,1.50
2019-01-02T15:31:58.914Z,1.13
2019-01-02T15:34:36.623Z,2.03
2019-01-02T15:37:14.120Z,1.67
2019-01-02T15:39:51.631Z,1.40
2019-01-02T15:42:29.128Z,1.70
2019-01-02T15:45:09.249Z,4.73
2019-01-02T15:47:46.743Z,4.00
2019-01-02T15:50:24.453Z,3.57
2019-01-02T15:53:01.967Z,2.27
2019-01-02T15:55:43.006Z,2.30
2019-01-02T15:58:25.247Z,2.27
2019-01-02T16:01:01.720Z,1.83
2019-01-02T16:03:39.255Z,3.23
2019-01-02T16:06:16.848Z,5.10
2019-01-02T16:08:54.371Z,4.00
2019-01-02T16:11:31.876Z,2.53
2019-01-02T16:14:09.399Z,2.47
2019-01-02T16:16:46.880Z,1.80
2019-01-02T16:19:24.410Z,4.63
2019-01-02T16:22:01.904Z,2.73
2019-01-02T16:24:39.688Z,2.27
2019-01-02T16:27:17.247Z,2.70
2019-01-02T16:29:54.766Z,2.27
2019-01-02T16:32:32.593Z,5.13
2019-01-02T16:35:10.659Z,2.30
2019-01-02T16:37:48.265Z,3.77
2019-01-02T16:40:25.753Z,3.10
2019-01-02T16:43:05.176Z,1.27
2019-01-02T16:45:44.786Z,2.83
2019-01-02T16:48:22.266Z,1.97
2019-01-02T16:50:59.821Z,2.27
2019-01-02T16:53:37.328Z,1.87
2019-01-02T16:56:14.954Z,3.17
2019-01-02T16:58:52.570Z,2.40
2019-01-02T17:01:30.046Z,1.80
2019-01-02T17:04:26.186Z,1.07
2019-01-02T17:07:03.691Z,2.60
2019-01-02T17:09:41.224Z,3.30
2019-01-02T17:12:18.696Z,2.33
2019-01-02T17:15:18.784Z,1.70
2019-01-02T17:17:56.296Z,1.30
2019-01-02T17:20:34.601Z,1.37
2019-01-02T17:23:12.386Z,2.77
2019-01-02T17:25:50.064Z,1.93
2019-01-02T17:28:27.871Z,1.37
2019-01-02T17:31:05.950Z,1.87
2019-01-02T17:33:43.756Z,1.10
2019-01-02T17:36:28.352Z,1.50
2019-01-02T17:39:08.238Z,2.17
2019-01-02T17:41:46.085Z,1.33
2019-01-02T17:44:23.816Z,1.50
2019-01-02T17:47:01.639Z,1.70
2019-01-02T17:49:39.413Z,4.50
2019-01-02T17:52:17.351Z,3.93
2019-01-02T17:54:54.902Z,1.70
2019-01-02T17:57:32.379Z,2.23
2019-01-02T18:00:14.355Z,4.13
2019-01-02T18:02:52.177Z,3.27
2019-01-02T18:05:36.469Z,2.83
2019-01-02T18:08:14.071Z,2.43
2019-01-02T18:10:52.045Z,2.90
2019-01-02T18:13:29.962Z,1.10
2019-01-02T18:16:07.590Z,1.07
2019-01-02T18:18:45.336Z,1.10
2019-01-02T18:21:22.858Z,0.93
2019-01-02T18:24:00.435Z,1.83
2019-01-02T18:26:37.951Z,1.63
2019-01-02T18:29:15.427Z,1.30
2019-01-02T18:31:52.976Z,0.90
2019-01-02T18:34:34.490Z,1.37
2019-01-02T18:37:11.990Z,0.73
2019-01-02T18:39:49.491Z,0.90
2019-01-02T18:42:27.023Z,1.03
2019-01-02T18:45:06.687Z,1.50
2019-01-02T18:47:44.793Z,1.33
2019-01-02T18:50:23.901Z,2.03
2019-01-02T18:53:01.911Z,0.97
2019-01-02T18:55:49.224Z,1.00
2019-01-02T18:58:27.314Z,2.50
2019-01-02T19:01:05.362Z,1.43
2019-01-02T19:03:49.160Z,1.97
2019-01-02T19:06:26.717Z,1.17
2019-01-02T19:09:04.273Z,2.87
2019-01-02T19:11:41.856Z,0.80
2019-01-02T19:14:22.976Z,0.70
2019-01-02T19:17:00.523Z,1.17
2019-01-02T19:19:38.019Z,1.80
2019-01-02T19:22:15.512Z,2.17
2019-01-02T19:25:03.184Z,2.90
2019-01-02T19:27:40.717Z,1.50
2019-01-02T19:30:19.294Z,3.47
2019-01-02T19:32:56.778Z,2.40
2019-01-02T19:35:35.466Z,1.57
2019-01-02T19:38:13.668Z,0.90
2019-01-02T19:40:51.844Z,0.90
2019-01-02T19:43:32.715Z,1.00
2019-01-02T19:46:10.249Z,1.33
2019-01-02T19:48:50.778Z,1.87
2019-01-02T19:51:28.290Z,2.20
2019-01-02T19:54:12.828Z,1.13
2019-01-02T19:56:50.447Z,1.00
2019-01-02T19:59:28.196Z,1.30
2019-01-02T20:02:06.530Z,0.80
2019-01-02T20:04:48.507Z,0.70
2019-01-02T20:07:26.040Z,1.53
2019-01-02T20:10:03.525Z,0.70
2019-01-02T20:12:41.031Z,1.07
2019-01-02T20:15:24.864Z,0.70
2019-01-02T20:18:02.986Z,1.50
2019-01-02T20:20:41.365Z,2.20
2019-01-02T20:23:20.729Z,1.00
2019-01-02T20:25:59.274Z,0.70
2019-01-02T20:28:37.635Z,2.20
2019-01-02T20:31:15.911Z,0.70
2019-01-02T20:33:57.456Z,1.10
2019-01-02T20:36:40.653Z,1.40
2019-01-02T20:39:13.843Z,0.80
2019-01-02T20:41:51.758Z,0.80
2019-01-02T20:44:30.010Z,0.90
2019-01-02T20:47:08.003Z,1.33
2019-01-02T20:49:45.895Z,0.90
2019-01-02T20:52:24.772Z,1.17
2019-01-02T20:55:07.689Z,0.80
2019-01-02T20:57:46.513Z,1.30
2019-01-02T21:00:24.660Z,2.00
2019-01-02T21:03:02.971Z,1.23
2019-01-02T21:05:51.115Z,0.77
2019-01-02T21:08:30.369Z,2.23
2019-01-02T21:11:08.546Z,2.33
2019-01-02T21:13:49.708Z,1.47
2019-01-02T21:16:28.187Z,1.30
2019-01-02T21:19:06.388Z,1.03
2019-01-02T21:21:44.918Z,1.20
2019-01-02T21:24:24.920Z,2.77
2019-01-02T21:27:02.428Z,2.67
2019-01-02T21:29:39.904Z,1.53
2019-01-02T21:32:17.408Z,1.33
2019-01-02T21:34:55.012Z,1.00
2019-01-02T21:37:32.561Z,1.00
2019-01-02T21:40:10.868Z,1.03
2019-01-02T21:42:48.372Z,1.90
2019-01-02T21:45:32.131Z,2.40
2019-01-02T21:48:09.641Z,1.00
2019-01-02T21:50:47.124Z,1.53
2019-01-02T21:53:24.758Z,1.17
2019-01-02T21:56:02.377Z,0.93
2019-01-02T21:58:39.752Z,2.00
2019-01-02T22:01:17.242Z,1.00
2019-01-02T22:04:05.025Z,0.80
2019-01-02T22:06:43.564Z,0.90
2019-01-02T22:09:22.572Z,1.53
2019-01-02T22:12:03.486Z,1.17
2019-01-02T22:14:51.165Z,0.80
2019-01-02T22:17:28.656Z,1.70
2019-01-02T22:20:06.185Z,2.53
2019-01-02T22:22:43.676Z,2.00
2019-01-02T22:25:21.156Z,1.77
2019-01-02T22:27:58.664Z,0.97
2019-01-02T22:30:36.145Z,1.20
2019-01-02T22:33:20.873Z,2.00
2019-01-02T22:35:58.361Z,0.80
2019-01-02T22:38:35.867Z,1.73
2019-01-02T22:41:13.348Z,1.47
2019-01-02T22:43:50.971Z,1.30
2019-01-02T22:46:28.484Z,1.60
2019-01-02T22:49:05.948Z,1.80
2019-01-02T22:51:43.466Z,0.80
2019-01-02T22:54:30.946Z,1.17
2019-01-02T22:57:08.437Z,0.70
2019-01-02T22:59:45.929Z,0.67
2019-01-02T23:02:54.865Z,0.80
2019-01-02T23:06:00.205Z,0.93
2019-01-02T23:08:57.671Z,0.80
2019-01-02T23:11:53.651Z,0.70
2019-01-02T23:15:11.417Z,0.60
2019-01-02T23:18:27.085Z,1.27
2019-01-02T23:21:36.428Z,1.40
2019-01-02T23:24:36.983Z,3.07
2019-01-02T23:27:34.138Z,0.93
2019-01-02T23:30:30.210Z,1.30
2019-01-02T23:33:24.966Z,0.67
2019-01-02T23:36:18.303Z,0.83
2019-01-02T23:39:07.282Z,1.27
2019-01-02T23:42:23.238Z,0.70
2019-01-02T23:45:19.293Z,1.17
2019-01-02T23:48:15.404Z,1.33
2019-01-02T23:51:14.229Z,0.60
2019-01-02T23:54:10.324Z,0.87
2019-01-02T23:57:16.621Z,1.00
